TimeCDT,TemperatureF,Dew PointF,Humidity,Sea Level PressureIn,VisibilityMPH,Wind Direction,Wind SpeedMPH,Gust SpeedMPH,PrecipitationIn,Events,Conditions,WindDirDegrees,DateUTC
12:15 AM,42.3,23.7,48,30.21,10.0,East,5.8,-,N/A,,Clear,100,2013-04-26 05:15:00
12:35 AM,42.1,23.7,48,30.21,10.0,East,6.9,-,N/A,,Clear,90,2013-04-26 05:35:00
12:55 AM,42.4,23.2,47,30.21,10.0,ESE,3.5,-,N/A,,Clear,120,2013-04-26 05:55:00
1:15 AM,43.5,22.8,44,30.21,10.0,ESE,6.9,-,N/A,,Clear,120,2013-04-26 06:15:00
1:35 AM,44.1,22.6,43,30.20,10.0,ESE,4.6,-,N/A,,Clear,120,2013-04-26 06:35:00
1:55 AM,44.2,22.8,43,30.19,10.0,SE,6.9,-,N/A,,Clear,130,2013-04-26 06:55:00
2:15 AM,43.9,23.9,45,30.19,10.0,ESE,5.8,-,N/A,,Scattered Clouds,120,2013-04-26 07:15:00
2:35 AM,43.5,24.8,48,30.19,10.0,East,4.6,-,N/A,,Scattered Clouds,80,2013-04-26 07:35:00
2:55 AM,44.1,25.0,47,30.22,10.0,NE,5.8,-,N/A,,Scattered Clouds,50,2013-04-26 07:55:00
3:15 AM,44.1,25.7,49,30.21,10.0,East,8.1,-,N/A,,Mostly Cloudy,100,2013-04-26 08:15:00
3:35 AM,44.2,25.2,47,30.20,10.0,ESE,6.9,-,N/A,,Overcast,120,2013-04-26 08:35:00
3:55 AM,43.7,25.9,50,30.19,10.0,ESE,6.9,-,N/A,,Mostly Cloudy,110,2013-04-26 08:55:00
4:15 AM,43.0,26.8,53,30.19,10.0,ESE,4.6,-,N/A,,Scattered Clouds,120,2013-04-26 09:15:00
4:35 AM,43.3,27.3,53,30.18,10.0,East,4.6,-,N/A,,Scattered Clouds,100,2013-04-26 09:35:00
4:55 AM,43.0,27.9,55,30.18,10.0,ESE,6.9,-,N/A,,Clear,110,2013-04-26 09:55:00
5:15 AM,42.8,28.4,57,30.18,10.0,East,8.1,-,N/A,,Clear,90,2013-04-26 10:15:00
5:35 AM,42.6,28.9,58,30.18,10.0,East,6.9,-,N/A,,Clear,100,2013-04-26 10:35:00
5:55 AM,42.8,29.3,59,30.18,10.0,ESE,8.1,-,N/A,,Clear,110,2013-04-26 10:55:00
6:15 AM,43.2,29.8,59,30.17,10.0,ESE,8.1,-,N/A,,Clear,120,2013-04-26 11:15:00
6:55 AM,45.0,30.9,58,30.16,10.0,ESE,8.1,-,N/A,,Clear,120,2013-04-26 11:55:00
7:15 AM,45.9,31.3,57,30.16,10.0,ESE,6.9,-,N/A,,Clear,120,2013-04-26 12:15:00
7:35 AM,46.9,31.8,56,30.16,10.0,ESE,9.2,-,N/A,,Scattered Clouds,120,2013-04-26 12:35:00
7:55 AM,47.3,32.0,55,30.16,10.0,SE,10.4,-,N/A,,Clear,130,2013-04-26 12:55:00
8:15 AM,48.9,32.7,54,30.16,10.0,ESE,8.1,-,N/A,,Clear,120,2013-04-26 13:15:00
8:35 AM,51.1,33.3,51,30.16,10.0,SE,8.1,-,N/A,,Clear,130,2013-04-26 13:35:00
8:55 AM,53.6,33.8,47,30.15,10.0,SSE,5.8,-,N/A,,Clear,160,2013-04-26 13:55:00
9:15 AM,55.0,33.8,45,30.15,10.0,South,6.9,-,N/A,,Clear,170,2013-04-26 14:15:00
9:35 AM,56.7,34.0,42,30.15,10.0,South,15.0,19.6,N/A,,Clear,170,2013-04-26 14:35:00
9:55 AM,57.9,34.7,42,30.15,10.0,South,10.4,17.3,N/A,,Clear,190,2013-04-26 14:55:00
10:15 AM,59.2,35.1,40,30.14,10.0,South,11.5,18.4,N/A,,Clear,180,2013-04-26 15:15:00
10:35 AM,61.2,35.1,38,30.14,10.0,South,12.7,18.4,N/A,,Clear,180,2013-04-26 15:35:00
10:55 AM,61.9,35.8,38,30.14,10.0,South,13.8,19.6,N/A,,Clear,180,2013-04-26 15:55:00
11:15 AM,62.6,36.3,38,30.14,10.0,South,15.0,18.4,N/A,,Clear,180,2013-04-26 16:15:00
11:35 AM,63.9,36.9,37,30.14,10.0,South,15.0,21.9,N/A,,Clear,180,2013-04-26 16:35:00
12:15 PM,66.4,36.9,34,30.14,10.0,SW,19.6,24.2,N/A,,Clear,220,2013-04-26 17:15:00
12:35 PM,67.5,37.9,34,30.14,10.0,South,12.7,19.6,N/A,,Clear,190,2013-04-26 17:35:00
12:55 PM,68.0,38.5,34,30.13,10.0,South,17.3,24.2,N/A,,Clear,190,2013-04-26 17:55:00
1:15 PM,68.9,39.4,34,30.12,10.0,SSW,11.5,21.9,N/A,,Scattered Clouds,200,2013-04-26 18:15:00
1:35 PM,70.3,40.5,34,30.11,10.0,SSW,15.0,23.0,N/A,,Scattered Clouds,200,2013-04-26 18:35:00
1:55 PM,68.9,39.9,35,30.11,10.0,SSW,15.0,23.0,N/A,,Mostly Cloudy,200,2013-04-26 18:55:00
2:15 PM,70.2,40.8,34,30.11,10.0,SSW,20.7,26.5,N/A,,Mostly Cloudy,200,2013-04-26 19:15:00
2:35 PM,68.9,40.6,36,30.11,10.0,SW,16.1,23.0,N/A,,Mostly Cloudy,220,2013-04-26 19:35:00
2:55 PM,69.1,40.8,36,30.11,10.0,South,15.0,25.3,N/A,,Mostly Cloudy,190,2013-04-26 19:55:00
3:15 PM,68.9,41.2,36,30.12,10.0,SW,18.4,23.0,N/A,,Mostly Cloudy,220,2013-04-26 20:15:00
3:35 PM,68.0,41.2,38,30.11,10.0,South,16.1,24.2,N/A,,Overcast,190,2013-04-26 20:35:00
3:55 PM,70.0,42.1,36,30.11,10.0,SSW,13.8,21.9,N/A,,Mostly Cloudy,200,2013-04-26 20:55:00
4:15 PM,68.9,42.6,39,30.11,10.0,South,12.7,21.9,N/A,,Scattered Clouds,180,2013-04-26 21:15:00
4:35 PM,68.5,43.3,40,30.11,10.0,SSW,12.7,20.7,N/A,,Mostly Cloudy,200,2013-04-26 21:35:00
4:55 PM,68.5,43.0,40,30.11,10.0,South,13.8,19.6,N/A,,Mostly Cloudy,190,2013-04-26 21:55:00
5:15 PM,67.8,43.5,41,30.11,10.0,South,9.2,-,N/A,,Mostly Cloudy,190,2013-04-26 22:15:00
5:35 PM,66.7,43.0,42,30.12,10.0,SSW,10.4,19.6,N/A,,Mostly Cloudy,200,2013-04-26 22:35:00
5:55 PM,66.2,42.3,42,30.12,10.0,SSW,9.2,-,N/A,,Overcast,200,2013-04-26 22:55:00
6:15 PM,65.8,42.8,43,30.13,10.0,South,9.2,-,N/A,,Overcast,190,2013-04-26 23:15:00
6:35 PM,65.3,42.3,43,30.13,10.0,South,8.1,-,N/A,,Overcast,190,2013-04-26 23:35:00
6:55 PM,64.8,42.6,45,30.13,10.0,SSW,8.1,-,N/A,,Overcast,200,2013-04-26 23:55:00
7:15 PM,64.8,42.4,44,30.14,10.0,SSW,5.8,10.4,N/A,,Overcast,210,2013-04-27 00:15:00
7:35 PM,64.4,42.6,45,30.14,10.0,South,5.8,-,N/A,,Overcast,190,2013-04-27 00:35:00
7:55 PM,63.7,42.1,45,30.14,10.0,South,6.9,-,N/A,,Mostly Cloudy,180,2013-04-27 00:55:00
8:15 PM,63.9,41.9,45,30.14,10.0,South,8.1,-,N/A,,Mostly Cloudy,170,2013-04-27 01:15:00
8:35 PM,63.5,41.5,45,30.14,10.0,SSE,8.1,-,N/A,,Scattered Clouds,160,2013-04-27 01:35:00
8:55 PM,63.0,41.9,46,30.15,10.0,South,13.8,-,N/A,,Scattered Clouds,170,2013-04-27 01:55:00
9:15 PM,62.4,42.6,48,30.16,10.0,South,10.4,-,N/A,,Scattered Clouds,180,2013-04-27 02:15:00
9:35 PM,61.3,43.2,51,30.17,10.0,South,8.1,-,N/A,,Scattered Clouds,180,2013-04-27 02:35:00
9:55 PM,60.6,43.5,53,30.18,10.0,South,6.9,-,N/A,,Clear,170,2013-04-27 02:55:00
10:15 PM,60.1,44.1,55,30.19,10.0,South,10.4,-,N/A,,Clear,180,2013-04-27 03:15:00
10:35 PM,59.4,44.6,58,30.19,10.0,South,10.4,17.3,N/A,,Clear,170,2013-04-27 03:35:00
10:55 PM,58.5,44.8,60,30.19,10.0,South,9.2,-,N/A,,Clear,170,2013-04-27 03:55:00
11:15 PM,58.1,45.3,62,30.19,10.0,South,5.8,-,N/A,,Clear,170,2013-04-27 04:15:00
11:35 PM,56.3,45.5,67,30.21,10.0,South,8.1,-,N/A,,Clear,190,2013-04-27 04:35:00
11:55 PM,56.1,45.5,68,30.21,10.0,SSW,4.6,-,N/A,,Clear,200,2013-04-27 04:55:00